Time;durP1;ratioP1;P1;durP2;ratioP2;P2;SDS_P1;SDS_P2;PMS_P1;PMS_P2;Temp;Humidity;BMP_temperature;BMP_pressure;BME280_temperature;BME280_humidity;BME280_pressure;Samples;Min_cycle;Max_cycle;Signal;HPM_P1;HPM_P2
2022/12/22 03:26:27;;;;;;;3.57;3.27;;;6.90;93.80;;;;;;5036318;28;20237;-79
2022/12/22 03:28:53;;;;;;;3.77;3.37;;;6.90;1.00;;;;;;5034760;28;20213;-79
2022/12/22 03:31:19;;;;;;;4.23;3.40;;;6.90;1.00;;;;;;5035864;28;20175;-80
2022/12/22 03:33:44;;;;;;;3.40;3.10;;;6.90;1.00;;;;;;5036928;28;20257;-79
2022/12/22 03:36:10;;;;;;;3.47;3.17;;;7.40;99.90;;;;;;5035444;28;20179;-80
2022/12/22 03:38:36;;;;;;;3.67;3.17;;;6.90;99.90;;;;;;5035818;28;20277;-78
2022/12/22 03:41:02;;;;;;;3.60;3.30;;;6.80;99.90;;;;;;5035340;28;20237;-80
2022/12/22 03:46:29;;;;;;;4.40;4.00;;;6.80;1.00;;;;;;5035325;28;20193;-80
2022/12/22 03:49:11;;;;;;;4.50;4.10;;;6.80;1.00;;;;;;5032898;28;20583;-79
2022/12/22 03:51:42;;;;;;;4.40;4.00;;;6.70;1.00;;;;;;5035416;28;20617;-80
2022/12/22 03:54:10;;;;;;;5.10;4.10;;;6.70;47.90;;;;;;5035711;28;20253;-80
2022/12/22 03:56:36;;;;;;;4.53;4.10;;;6.70;5.70;;;;;;5035807;28;20186;-80
2022/12/22 03:59:02;;;;;;;3.70;3.40;;;6.60;1.00;;;;;;5035897;28;20179;-79
2022/12/22 04:01:28;;;;;;;4.83;4.20;;;6.60;80.30;;;;;;5036161;28;20187;-80
2022/12/22 04:03:53;;;;;;;3.70;3.40;;;6.60;99.90;;;;;;5036039;28;20253;-79
2022/12/22 04:06:19;;;;;;;4.27;3.87;;;6.60;99.90;;;;;;5034872;28;20183;-80
2022/12/22 04:08:45;;;;;;;5.43;4.00;;;6.60;99.90;;;;;;5035662;28;20211;-78
2022/12/22 04:13:56;;;;;;;4.37;3.97;;;6.60;99.90;;;;;;5035538;28;20221;-80
2022/12/22 04:16:22;;;;;;;4.43;4.03;;;6.60;99.90;;;;;;5034185;28;20191;-80
2022/12/22 04:18:48;;;;;;;4.53;4.13;;;6.60;99.90;;;;;;5034642;28;20186;-80
2022/12/22 04:21:13;;;;;;;4.70;4.30;;;6.60;99.90;;;;;;5034469;28;20201;-79
2022/12/22 04:23:39;;;;;;;3.90;3.60;;;6.60;99.90;;;;;;5034316;28;21273;-80
2022/12/22 04:26:04;;;;;;;4.27;3.87;;;6.60;99.90;;;;;;5034757;28;20187;-79
2022/12/22 04:28:30;;;;;;;4.17;3.77;;;6.60;99.90;;;;;;5034864;28;20316;-81
2022/12/22 04:30:56;;;;;;;4.00;3.70;;;6.60;99.90;;;;;;5035464;28;20187;-80
2022/12/22 04:33:21;;;;;;;3.80;3.50;;;6.60;99.90;;;;;;5033763;28;20264;-79
2022/12/22 04:35:47;;;;;;;3.40;3.10;;;6.50;99.90;;;;;;5034794;28;20183;-79
2022/12/22 04:38:12;;;;;;;4.53;3.97;;;6.50;99.90;;;;;;5034713;28;20926;-80
2022/12/22 04:40:38;;;;;;;4.00;3.70;;;6.50;1.00;;;;;;5035572;28;20187;-79
2022/12/22 04:43:03;;;;;;;4.10;3.80;;;6.50;1.00;;;;;;5033944;28;20882;-80
2022/12/22 04:45:29;;;;;;;5.27;4.20;;;6.50;1.00;;;;;;5032741;28;20202;-80
2022/12/22 04:47:54;;;;;;;3.80;3.50;;;6.50;1.00;;;;;;5034697;28;20227;-80
2022/12/22 04:50:20;;;;;;;3.90;3.60;;;6.50;1.00;;;;;;5035407;28;20181;-80
2022/12/22 04:52:45;;;;;;;4.00;3.60;;;6.50;1.00;;;;;;5036018;28;20183;-79
2022/12/22 04:55:11;;;;;;;4.30;4.00;;;6.50;1.00;;;;;;5035015;28;20190;-79
2022/12/22 04:57:36;;;;;;;4.23;3.83;;;6.50;1.00;;;;;;5035393;28;20198;-78
2022/12/22 05:00:04;;;;;;;4.30;3.93;;;6.50;1.00;;;;;;5034782;28;20183;-80
2022/12/22 05:02:29;;;;;;;4.20;3.80;;;6.40;99.90;;;;;;5032533;28;20187;-80
2022/12/22 05:04:55;;;;;;;4.90;4.27;;;6.40;99.90;;;;;;5034027;28;20278;-80
2022/12/22 05:07:20;;;;;;;4.17;3.87;;;6.30;99.90;;;;;;5032617;28;20191;-79
2022/12/22 05:09:46;;;;;;;4.63;4.00;;;6.20;99.90;;;;;;5034646;28;20290;-80
2022/12/22 05:14:55;;;;;;;4.60;4.13;;;6.20;99.90;;;;;;5034281;28;20229;-80
2022/12/22 05:17:21;;;;;;;4.60;4.20;;;6.20;99.90;;;;;;5033513;28;20186;-80
2022/12/22 05:19:47;;;;;;;4.93;4.40;;;6.10;99.90;;;;;;5033645;28;20657;-80
2022/12/22 05:22:12;;;;;;;5.57;4.40;;;6.10;99.90;;;;;;5034382;28;20221;-80
2022/12/22 05:24:38;;;;;;;5.10;4.00;;;6.00;99.90;;;;;;5034689;28;20632;-79
2022/12/22 05:27:03;;;;;;;4.50;4.10;;;5.90;99.90;;;;;;5033655;28;20190;-80
2022/12/22 05:29:29;;;;;;;4.60;4.20;;;5.90;99.90;;;;;;5033364;28;20730;-79
2022/12/22 05:31:54;;;;;;;4.30;3.90;;;5.90;1.00;;;;;;5033071;28;20175;-80
2022/12/22 05:34:20;;;;;;;4.60;4.20;;;5.90;1.00;;;;;;5033332;28;20248;-78
2022/12/22 05:36:46;;;;;;;4.87;4.37;;;5.90;1.00;;;;;;5033844;28;20187;-80
2022/12/22 05:39:11;;;;;;;4.43;4.03;;;5.90;1.00;;;;;;5030131;28;20194;-79
2022/12/22 05:41:37;;;;;;;4.03;3.73;;;5.90;1.00;;;;;;5033289;28;20179;-78
2022/12/22 05:44:02;;;;;;;5.23;4.47;;;6.30;1.00;;;;;;5033154;28;20301;-78
2022/12/22 05:46:28;;;;;;;4.73;4.07;;;5.90;1.00;;;;;;5032209;28;20194;-80
2022/12/22 05:48:53;;;;;;;4.53;4.13;;;6.00;1.00;;;;;;5032192;28;20211;-80
2022/12/22 05:51:19;;;;;;;4.60;4.17;;;6.00;1.00;;;;;;5033670;28;20186;-79
2022/12/22 05:53:44;;;;;;;5.60;4.77;;;5.90;1.00;;;;;;5031787;28;20210;-78
2022/12/22 05:56:10;;;;;;;5.30;4.80;;;5.90;1.00;;;;;;5032040;28;20221;-80
2022/12/22 05:58:39;;;;;;;5.43;4.93;;;5.80;1.00;;;;;;5032684;28;20566;-78
2022/12/22 06:01:04;;;;;;;5.93;4.90;;;5.70;1.00;;;;;;5032560;28;21090;-78
2022/12/22 06:03:30;;;;;;;7.17;5.50;;;5.70;38.30;;;;;;5032760;28;20205;-80
2022/12/22 06:05:57;;;;;;;7.33;5.70;;;5.70;99.90;;;;;;5030497;28;20221;-80
2022/12/22 06:08:23;;;;;;;5.97;5.30;;;5.70;99.90;;;;;;5030813;28;20198;-78
2022/12/22 06:10:49;;;;;;;6.20;5.60;;;5.70;1.00;;;;;;5031680;28;20183;-79
2022/12/22 06:13:14;;;;;;;5.53;4.97;;;5.70;1.00;;;;;;5033622;28;20256;-78
2022/12/22 06:15:40;;;;;;;6.20;5.20;;;5.70;1.00;;;;;;5033208;28;20190;-80
2022/12/22 06:18:05;;;;;;;6.40;5.33;;;5.70;99.90;;;;;;5032454;28;20804;-80
2022/12/22 06:20:31;;;;;;;5.93;5.23;;;5.70;99.90;;;;;;5031831;28;20190;-78
2022/12/22 06:22:57;;;;;;;6.03;5.43;;;5.70;1.00;;;;;;5032193;28;20183;-80
2022/12/22 06:25:22;;;;;;;6.87;5.20;;;5.80;1.00;;;;;;5029955;28;20182;-78
2022/12/22 06:27:48;;;;;;;5.73;5.13;;;5.80;1.00;;;;;;5031136;28;20289;-79
2022/12/22 06:30:15;;;;;;;5.80;5.20;;;5.80;1.00;;;;;;5033301;28;20191;-79
2022/12/22 06:32:41;;;;;;;6.10;5.33;;;5.70;1.00;;;;;;5033061;28;20186;-80
2022/12/22 06:35:07;;;;;;;7.27;5.77;;;5.70;1.00;;;;;;5033272;28;20179;-80
2022/12/22 06:37:33;;;;;;;7.10;5.30;;;5.70;1.00;;;;;;5032831;28;20649;-80
2022/12/22 06:39:58;;;;;;;5.90;5.30;;;5.70;1.00;;;;;;5032316;28;20201;-79
2022/12/22 06:45:09;;;;;;;6.07;5.23;;;5.70;1.00;;;;;;5033326;28;20206;-77
2022/12/22 06:47:34;;;;;;;6.13;4.93;;;5.70;1.00;;;;;;5033314;28;20202;-79
2022/12/22 06:50:00;;;;;;;5.43;4.93;;;5.70;1.00;;;;;;5033776;28;20555;-78
2022/12/22 06:52:25;;;;;;;6.03;5.17;;;5.70;16.50;;;;;;5031708;28;20198;-80
2022/12/22 06:54:51;;;;;;;5.37;4.60;;;5.80;99.90;;;;;;5034553;28;20199;-79
2022/12/22 06:57:16;;;;;;;6.80;4.87;;;5.80;99.90;;;;;;5040337;28;20190;-80
2022/12/22 06:59:42;;;;;;;5.53;5.03;;;5.90;99.90;;;;;;5037806;28;20195;-80
2022/12/22 07:02:11;;;;;;;6.63;5.10;;;5.90;99.90;;;;;;5037211;28;20210;-80
2022/12/22 07:04:36;;;;;;;7.00;5.40;;;5.90;99.90;;;;;;5039686;28;20212;-80
2022/12/22 07:07:03;;;;;;;7.20;6.23;;;5.90;99.90;;;;;;5040163;28;20212;-80
2022/12/22 07:09:28;;;;;;;7.47;5.70;;;5.90;99.90;;;;;;5040380;28;20213;-80
2022/12/22 07:11:54;;;;;;;6.97;5.50;;;5.90;1.00;;;;;;5039575;28;20174;-80
2022/12/22 07:14:19;;;;;;;6.20;5.60;;;5.90;1.00;;;;;;5041457;28;20194;-79
2022/12/22 07:16:45;;;;;;;5.57;4.93;;;5.90;1.00;;;;;;5041901;28;20546;-79
2022/12/22 07:19:12;;;;;;;5.93;4.87;;;5.90;1.00;;;;;;5036295;28;20190;-79
2022/12/22 07:21:37;;;;;;;6.07;5.47;;;5.90;1.00;;;;;;5037850;28;20193;-79
2022/12/22 07:24:03;;;;;;;6.40;5.70;;;5.90;1.00;;;;;;5040397;28;21316;-79
2022/12/22 07:26:29;;;;;;;5.97;5.37;;;5.90;1.00;;;;;;5040449;28;20190;-80
2022/12/22 07:28:54;;;;;;;7.30;6.50;;;5.90;1.00;;;;;;5040382;28;20241;-79
2022/12/22 07:31:20;;;;;;;6.93;6.20;;;5.90;16.20;;;;;;5039697;28;20673;-79
2022/12/22 07:33:46;;;;;;;7.67;6.87;;;5.90;99.90;;;;;;5038788;28;20443;-79
2022/12/22 07:36:13;;;;;;;7.73;6.90;;;6.00;99.90;;;;;;5037880;28;20187;-79
2022/12/22 07:38:41;;;;;;;8.93;7.70;;;6.10;99.90;;;;;;5036288;28;20686;-79
2022/12/22 07:42:43;;;;;;;7.60;6.80;;;6.00;99.90;;;;;;5038321;28;20205;-79
2022/12/22 07:43:55;;;;;;;9.90;8.40;;;6.10;99.90;;;;;;5037189;28;20217;-78
2022/12/22 07:46:21;;;;;;;9.07;7.90;;;6.10;1.00;;;;;;5038920;28;20187;-79
2022/12/22 07:51:34;;;;;;;11.33;8.93;;;6.30;99.90;;;;;;5040751;28;20190;-79
2022/12/22 07:53:59;;;;;;;9.67;8.60;;;6.40;99.90;;;;;;5040252;28;20696;-79
2022/12/22 07:56:25;;;;;;;10.83;9.00;;;6.40;19.20;;;;;;5041005;28;20235;-80
2022/12/22 07:58:50;;;;;;;11.20;9.40;;;6.50;99.90;;;;;;5039873;28;20183;-81
2022/12/22 08:01:16;;;;;;;10.80;9.70;;;6.50;99.90;;;;;;5039993;28;20191;-79
2022/12/22 08:03:41;;;;;;;10.93;9.83;;;6.50;1.00;;;;;;5039558;28;20198;-80
2022/12/22 08:06:07;;;;;;;10.87;9.53;;;6.50;1.00;;;;;;5036819;28;20190;-81
2022/12/22 08:08:33;;;;;;;10.17;9.10;;;6.60;1.00;;;;;;5037499;28;20266;-80
2022/12/22 08:11:03;;;;;;;18.73;16.83;;;6.70;1.00;;;;;;5036697;28;20214;-80
2022/12/22 08:13:28;;;;;;;26.83;24.00;;;7.00;1.00;;;;;;5035663;28;20260;-80
2022/12/22 08:15:54;;;;;;;23.97;20.67;;;6.70;1.00;;;;;;5035740;28;20180;-80
2022/12/22 08:18:19;;;;;;;59.77;49.80;;;6.70;1.00;;;;;;5035616;28;21105;-79
2022/12/22 08:20:51;;;;;;;19.53;17.47;;;6.70;1.00;;;;;;5034743;28;20212;-81
2022/12/22 08:23:18;;;;;;;28.43;25.33;;;6.80;1.00;;;;;;5035952;28;20318;-80
2022/12/22 08:25:47;;;;;;;15.10;13.60;;;6.80;1.00;;;;;;5035672;28;20628;-80
2022/12/22 08:28:15;;;;;;;13.47;12.07;;;6.90;1.00;;;;;;5036074;28;20226;-81
2022/12/22 08:30:41;;;;;;;12.60;10.77;;;6.90;1.00;;;;;;5034943;28;20186;-81
2022/12/22 08:33:07;;;;;;;10.30;9.20;;;6.90;1.00;;;;;;5035035;28;20265;-80
2022/12/22 08:35:33;;;;;;;9.63;8.73;;;6.90;1.00;;;;;;5040542;28;20190;-80
2022/12/22 08:37:58;;;;;;;9.17;8.27;;;6.70;1.00;;;;;;5034317;28;20199;-81
2022/12/22 08:40:27;;;;;;;12.77;11.47;;;7.00;1.00;;;;;;5031199;28;20183;-81
2022/12/22 08:42:59;;;;;;;13.03;11.90;;;7.00;1.00;;;;;;5030538;28;20187;-80
2022/12/22 08:45:25;;;;;;;9.93;9.00;;;7.10;1.00;;;;;;5031965;28;20190;-80
2022/12/22 08:47:50;;;;;;;8.83;8.03;;;7.20;1.00;;;;;;5031767;28;20183;-82
2022/12/22 08:50:16;;;;;;;8.30;7.50;;;7.30;1.00;;;;;;5032608;28;20182;-80
2022/12/22 08:52:41;;;;;;;6.97;6.37;;;7.20;1.00;;;;;;5030540;28;20267;-82
2022/12/22 08:55:08;;;;;;;6.83;6.13;;;7.20;1.00;;;;;;5032507;28;20211;-81
2022/12/22 08:57:34;;;;;;;7.40;6.47;;;7.20;1.00;;;;;;5030588;28;20237;-82
2022/12/22 08:59:59;;;;;;;6.87;6.17;;;7.30;1.00;;;;;;5032453;28;20183;-82
2022/12/22 09:02:25;;;;;;;6.90;5.37;;;7.30;99.90;;;;;;5030486;28;20659;-81
2022/12/22 09:04:51;;;;;;;7.00;6.40;;;7.30;99.90;;;;;;5030389;28;20676;-80
2022/12/22 09:07:17;;;;;;;6.37;5.77;;;7.30;99.90;;;;;;5025397;28;20183;-80
2022/12/22 09:09:44;;;;;;;7.93;7.13;;;7.20;99.90;;;;;;5029748;28;20202;-78
2022/12/22 09:12:10;;;;;;;16.40;15.00;;;7.20;99.90;;;;;;5029579;28;20210;-81
2022/12/22 09:14:35;;;;;;;11.23;10.30;;;7.20;99.90;;;;;;5030573;28;20234;-81
2022/12/22 09:17:01;;;;;;;8.63;7.83;;;7.20;99.90;;;;;;5028920;28;20194;-80
2022/12/22 09:19:26;;;;;;;7.83;7.10;;;7.10;1.00;;;;;;5028947;28;20691;-79
2022/12/22 09:21:54;;;;;;;8.40;7.53;;;7.10;1.00;;;;;;5028280;28;20186;-79
2022/12/22 09:24:19;;;;;;;7.47;6.70;;;7.10;1.00;;;;;;5029258;28;20724;-81
2022/12/22 09:26:45;;;;;;;7.57;6.73;;;7.00;1.00;;;;;;5028574;28;20179;-79
2022/12/22 09:29:13;;;;;;;7.30;6.60;;;7.00;1.00;;;;;;5028665;28;20210;-81
2022/12/22 09:31:40;;;;;;;8.40;7.70;;;7.00;1.00;;;;;;5027107;28;20551;-79
2022/12/22 09:34:06;;;;;;;7.60;6.90;;;7.00;1.00;;;;;;5026659;28;20654;-80
2022/12/22 09:36:32;;;;;;;10.90;9.87;;;7.00;99.90;;;;;;5030091;28;20186;-80
2022/12/22 09:39:02;;;;;;;15.43;13.93;;;7.00;99.90;;;;;;5028158;28;20499;-80
2022/12/22 09:41:34;;;;;;;12.77;11.50;;;7.10;99.90;;;;;;5028946;28;20233;-81
2022/12/22 09:44:18;;;;;;;9.07;8.20;;;7.00;99.90;;;;;;5030208;28;20205;-81
2022/12/22 09:46:43;;;;;;;7.60;6.90;;;7.00;1.00;;;;;;5029271;28;20628;-78
2022/12/22 09:49:14;;;;;;;6.53;5.93;;;7.10;1.00;;;;;;5028503;28;20285;-80
2022/12/22 09:51:47;;;;;;;7.00;6.30;;;7.10;1.00;;;;;;5030002;28;20175;-80
2022/12/22 09:54:13;;;;;;;6.33;5.77;;;7.20;1.00;;;;;;5028136;28;20222;-80
2022/12/22 09:56:39;;;;;;;6.60;6.00;;;7.20;1.00;;;;;;5028023;28;20193;-82
2022/12/22 09:59:13;;;;;;;7.27;6.00;;;7.20;1.00;;;;;;5026164;28;20181;-79
2022/12/22 10:01:46;;;;;;;6.03;5.43;;;7.30;1.00;;;;;;5026766;28;20613;-80
2022/12/22 10:04:43;;;;;;;5.63;5.13;;;7.30;1.00;;;;;;5025282;28;20206;-79
2022/12/22 10:07:15;;;;;;;5.60;4.83;;;7.30;1.00;;;;;;5028061;28;21148;-80
2022/12/22 10:09:40;;;;;;;5.67;5.13;;;7.30;1.00;;;;;;5026078;28;20274;-80
2022/12/22 10:12:12;;;;;;;6.03;5.43;;;7.30;1.00;;;;;;5027298;28;20266;-79
2022/12/22 10:14:41;;;;;;;6.63;6.00;;;7.40;2.20;;;;;;5027499;28;20202;-79
2022/12/22 10:17:28;;;;;;;7.43;6.73;;;7.40;26.10;;;;;;5028223;28;20183;-79
2022/12/22 10:20:20;;;;;;;7.30;6.60;;;7.40;25.50;;;;;;5026802;28;20174;-79
2022/12/22 10:23:01;;;;;;;8.00;7.20;;;7.30;1.00;;;;;;5025740;28;20236;-79
2022/12/22 10:25:54;;;;;;;8.43;7.60;;;7.20;1.00;;;;;;5027235;28;20511;-79
2022/12/22 10:28:42;;;;;;;8.63;7.83;;;7.20;1.00;;;;;;5026114;28;20214;-78
2022/12/22 10:31:15;;;;;;;8.10;7.30;;;7.20;99.90;;;;;;5025745;28;20191;-78
2022/12/22 10:33:42;;;;;;;7.57;6.77;;;7.20;99.90;;;;;;5026850;28;20712;-79
2022/12/22 10:36:08;;;;;;;7.77;7.07;;;7.20;22.20;;;;;;5026148;28;20203;-79
2022/12/22 10:38:38;;;;;;;7.50;6.80;;;7.20;1.00;;;;;;5026276;28;20934;-79
2022/12/22 10:41:19;;;;;;;7.47;6.77;;;7.20;1.00;;;;;;5025535;28;20191;-79
2022/12/22 10:43:51;;;;;;;7.70;7.00;;;7.30;1.00;;;;;;5025366;28;20260;-76
2022/12/22 10:46:19;;;;;;;7.80;7.00;;;7.20;99.90;;;;;;5026188;28;20730;-78
2022/12/22 10:48:44;;;;;;;7.53;6.93;;;7.20;99.90;;;;;;5026912;28;20206;-78
2022/12/22 10:51:14;;;;;;;7.73;6.93;;;7.30;99.90;;;;;;5026578;28;20187;-80
2022/12/22 10:53:44;;;;;;;7.33;6.63;;;7.30;99.90;;;;;;5025461;28;20303;-78
2022/12/22 10:56:22;;;;;;;8.43;7.57;;;7.40;99.90;;;;;;5026391;28;20194;-78
2022/12/22 10:58:54;;;;;;;7.93;7.17;;;7.40;99.90;;;;;;5025062;28;20217;-79
2022/12/22 11:01:28;;;;;;;8.30;7.57;;;7.40;99.90;;;;;;5027031;28;20238;-79
2022/12/22 11:03:53;;;;;;;25.83;20.03;;;7.50;1.00;;;;;;5026262;28;20214;-79
2022/12/22 11:06:19;;;;;;;15.33;12.90;;;7.70;99.90;;;;;;5025205;28;20301;-78
2022/12/22 11:08:45;;;;;;;13.57;12.13;;;7.60;1.00;;;;;;5027208;28;20209;-78
2022/12/22 11:11:38;;;;;;;11.30;10.20;;;7.50;1.00;;;;;;5026051;28;20194;-79
2022/12/22 11:14:10;;;;;;;15.63;13.90;;;7.40;1.00;;;;;;5025745;28;20210;-78
2022/12/22 11:16:54;;;;;;;17.83;15.90;;;7.50;99.90;;;;;;5024750;28;20274;-79
2022/12/22 11:19:42;;;;;;;13.87;12.33;;;7.50;99.90;;;;;;5026789;28;20236;-79
2022/12/22 11:22:32;;;;;;;12.50;11.20;;;8.20;1.00;;;;;;5025415;28;20186;-80
2022/12/22 11:25:22;;;;;;;12.67;11.37;;;7.80;1.00;;;;;;5026530;28;20202;-77
2022/12/22 11:27:59;;;;;;;12.60;11.40;;;7.80;99.90;;;;;;5026439;28;20179;-78
2022/12/22 11:30:40;;;;;;;13.30;11.97;;;7.70;98.10;;;;;;5027744;28;20182;-79
2022/12/22 11:33:08;;;;;;;12.83;11.53;;;7.70;86.80;;;;;;5027442;28;20194;-82
2022/12/22 11:36:00;;;;;;;12.10;10.90;;;7.60;99.90;;;;;;5025047;28;20191;-79
2022/12/22 11:38:37;;;;;;;9.97;8.97;;;7.60;99.90;;;;;;5026897;28;20245;-77
2022/12/22 11:41:25;;;;;;;10.17;9.17;;;7.60;99.90;;;;;;5027700;28;20170;-79
2022/12/22 11:44:02;;;;;;;10.20;9.20;;;7.50;1.00;;;;;;5031135;28;20229;-79
2022/12/22 11:46:40;;;;;;;11.07;9.90;;;7.60;1.00;;;;;;5030015;28;20190;-78
2022/12/22 11:49:39;;;;;;;13.93;12.53;;;7.70;99.90;;;;;;5027877;28;20199;-79
2022/12/22 11:52:27;;;;;;;16.03;14.47;;;7.70;99.90;;;;;;5030193;28;20930;-79
2022/12/22 11:55:31;;;;;;;14.77;13.27;;;7.80;1.00;;;;;;5030263;28;20637;-79
2022/12/22 11:58:03;;;;;;;10.70;9.60;;;7.80;1.00;;;;;;5029244;28;20175;-79
2022/12/22 12:00:39;;;;;;;11.97;10.77;;;7.90;1.00;;;;;;5027958;28;20179;-79
2022/12/22 12:03:10;;;;;;;10.50;9.30;;;7.90;1.00;;;;;;5030475;28;20190;-79
2022/12/22 12:05:48;;;;;;;9.30;8.40;;;8.00;99.90;;;;;;5029353;28;20550;-79
2022/12/22 12:08:28;;;;;;;9.97;9.07;;;8.10;1.00;;;;;;5029919;28;20206;-79
2022/12/22 12:11:22;;;;;;;9.47;8.47;;;8.20;1.00;;;;;;5024151;28;20175;-78
2022/12/22 12:14:03;;;;;;;7.97;7.27;;;8.30;1.00;;;;;;5026545;28;21116;-78
2022/12/22 12:16:46;;;;;;;7.63;6.93;;;8.40;1.00;;;;;;5024507;28;20187;-78
2022/12/22 12:19:30;;;;;;;8.27;7.47;;;8.40;1.00;;;;;;5027734;28;20657;-79
2022/12/22 12:22:04;;;;;;;9.20;8.13;;;8.40;1.00;;;;;;5026755;28;20397;-78
2022/12/22 12:24:49;;;;;;;9.13;8.30;;;8.40;99.90;;;;;;5028630;28;20198;-79
2022/12/22 12:27:24;;;;;;;8.80;8.00;;;8.40;99.90;;;;;;5025572;28;20179;-82
2022/12/22 12:30:03;;;;;;;13.10;10.50;;;8.40;99.90;;;;;;5028891;28;20680;-85
2022/12/22 12:32:50;;;;;;;14.00;12.47;;;8.40;99.90;;;;;;5028685;28;20178;-80
2022/12/22 12:35:36;;;;;;;11.83;10.73;;;8.40;99.90;;;;;;5032918;28;20209;-80
2022/12/22 12:38:24;;;;;;;12.87;11.53;;;8.30;99.90;;;;;;5030549;28;20179;-80
2022/12/22 12:40:57;;;;;;;14.10;12.60;;;8.30;99.90;;;;;;5032388;28;20183;-79
2022/12/22 12:43:23;;;;;;;13.57;11.90;;;8.30;99.90;;;;;;5031996;28;20626;-79
2022/12/22 12:45:49;;;;;;;16.83;15.03;;;8.30;1.00;;;;;;5032292;28;20183;-80
2022/12/22 12:48:21;;;;;;;14.63;13.13;;;8.20;1.00;;;;;;5032206;28;20211;-79
2022/12/22 12:50:47;;;;;;;14.80;13.10;;;8.20;1.00;;;;;;5032179;28;20210;-80
2022/12/22 12:53:14;;;;;;;17.90;14.07;;;8.20;1.00;;;;;;5031333;28;20218;-80
2022/12/22 12:55:39;;;;;;;15.00;13.17;;;8.10;1.00;;;;;;5031520;28;20179;-80
2022/12/22 12:58:09;;;;;;;16.37;13.67;;;8.20;1.00;;;;;;5036907;28;20201;-77
2022/12/22 13:00:35;;;;;;;17.27;13.50;;;8.20;59.70;;;;;;5033011;28;20186;-79
2022/12/22 13:03:08;;;;;;;16.70;14.10;;;8.30;99.90;;;;;;5025283;28;20183;-79
2022/12/22 13:05:49;;;;;;;17.20;14.57;;;8.30;99.90;;;;;;5029019;28;20211;-80
2022/12/22 13:08:23;;;;;;;16.73;13.90;;;8.40;59.60;;;;;;5035087;28;20779;-80
2022/12/22 13:10:55;;;;;;;16.60;14.40;;;8.30;7.60;;;;;;5033732;28;20182;-78
2022/12/22 13:13:20;;;;;;;18.00;14.73;;;8.30;1.00;;;;;;5035310;28;20669;-80
2022/12/22 13:15:59;;;;;;;18.30;14.33;;;8.20;1.00;;;;;;5033680;28;21264;-77
2022/12/22 13:18:24;;;;;;;18.47;13.90;;;8.20;1.00;;;;;;5034388;28;20179;-80
2022/12/22 13:20:57;;;;;;;18.57;13.20;;;8.10;1.00;;;;;;5030348;28;20175;-79
2022/12/22 13:23:28;;;;;;;16.53;13.37;;;8.20;1.00;;;;;;5034805;28;20199;-80
2022/12/22 13:25:59;;;;;;;20.07;14.70;;;8.10;1.00;;;;;;5030171;28;20182;-81
2022/12/22 13:28:25;;;;;;;18.80;13.50;;;8.10;1.00;;;;;;5030254;28;20211;-80
2022/12/22 13:30:58;;;;;;;16.63;13.20;;;8.10;1.00;;;;;;5030874;28;20182;-78
2022/12/22 13:33:28;;;;;;;17.43;13.23;;;8.10;1.00;;;;;;5030313;28;20213;-78
2022/12/22 13:35:56;;;;;;;18.20;13.23;;;8.10;1.00;;;;;;5027953;28;20193;-83
2022/12/22 13:38:35;;;;;;;17.43;12.57;;;8.10;19.90;;;;;;5025532;28;20641;-85
2022/12/22 13:41:16;;;;;;;16.13;12.77;;;8.10;64.70;;;;;;5025050;28;20559;-84
2022/12/22 13:43:46;;;;;;;16.90;12.87;;;8.20;40.10;;;;;;5024923;28;20730;-84
2022/12/22 13:46:11;;;;;;;16.70;12.07;;;8.20;5.70;;;;;;5026080;28;20207;-79
2022/12/22 13:48:41;;;;;;;15.97;11.53;;;8.10;1.00;;;;;;5032717;28;20203;-80
2022/12/22 13:51:32;;;;;;;16.23;12.27;;;8.10;1.00;;;;;;5023459;28;20190;-80
2022/12/22 13:54:02;;;;;;;14.63;11.70;;;8.10;1.00;;;;;;5029312;28;20958;-79
2022/12/22 13:56:44;;;;;;;15.90;12.17;;;8.10;1.00;;;;;;5027616;28;20187;-80
2022/12/22 13:59:30;;;;;;;17.07;12.30;;;8.20;1.00;;;;;;5028189;28;20186;-80
2022/12/22 14:02:01;;;;;;;20.40;13.70;;;8.10;1.00;;;;;;5029926;28;20325;-80
2022/12/22 14:04:28;;;;;;;18.23;12.87;;;8.20;1.00;;;;;;5028428;28;21096;-80
2022/12/22 14:06:54;;;;;;;18.53;13.57;;;8.10;99.90;;;;;;5028667;28;20187;-80
2022/12/22 14:09:25;;;;;;;17.60;12.83;;;8.10;32.30;;;;;;5028862;28;20203;-80
2022/12/22 14:12:02;;;;;;;18.67;14.10;;;8.00;1.00;;;;;;5028360;28;20257;-80
2022/12/22 14:14:40;;;;;;;22.20;15.63;;;8.00;1.00;;;;;;5021746;28;20707;-78
2022/12/22 14:17:24;;;;;;;20.60;14.77;;;7.90;1.00;;;;;;5027990;28;20183;-80
2022/12/22 14:19:55;;;;;;;19.97;14.60;;;7.90;1.00;;;;;;5027562;28;20179;-78
2022/12/22 14:22:25;;;;;;;33.03;17.67;;;8.00;99.90;;;;;;5027234;28;20237;-80
2022/12/22 14:24:56;;;;;;;24.90;17.00;;;8.00;99.90;;;;;;5028263;28;20256;-80
2022/12/22 14:27:39;;;;;;;22.67;16.10;;;8.00;99.90;;;;;;5027818;28;20179;-77
2022/12/22 14:30:27;;;;;;;20.90;15.70;;;7.90;49.50;;;;;;5027967;28;20186;-81
2022/12/22 14:32:55;;;;;;;20.53;14.97;;;7.90;10.80;;;;;;5028433;28;20201;-80
2022/12/22 14:35:20;;;;;;;20.90;15.43;;;7.80;97.60;;;;;;5027876;28;20179;-80
2022/12/22 14:38:01;;;;;;;21.73;15.77;;;7.80;99.90;;;;;;5028534;28;20186;-80
2022/12/22 14:40:36;;;;;;;23.40;16.30;;;7.80;99.90;;;;;;5028623;28;20186;-79
2022/12/22 14:43:16;;;;;;;20.73;15.13;;;7.70;48.80;;;;;;5027667;28;20194;-81
2022/12/22 14:45:42;;;;;;;22.03;15.87;;;7.60;99.90;;;;;;5029082;28;20516;-80
2022/12/22 14:48:15;;;;;;;23.57;16.00;;;7.50;99.90;;;;;;5029249;28;20203;-78
2022/12/22 14:50:50;;;;;;;24.07;15.83;;;7.40;99.90;;;;;;5030036;28;20649;-79
2022/12/22 14:53:24;;;;;;;21.43;15.07;;;7.20;99.90;;;;;;5029383;28;20217;-80
2022/12/22 14:55:50;;;;;;;24.37;15.10;;;7.10;1.00;;;;;;5028569;28;20297;-79
2022/12/22 14:58:26;;;;;;;22.10;14.73;;;7.00;1.00;;;;;;5029561;28;20589;-80
2022/12/22 15:01:15;;;;;;;24.10;15.63;;;6.90;1.00;;;;;;5026024;28;20317;-79
2022/12/22 15:03:40;;;;;;;23.70;15.90;;;7.60;3.00;;;;;;5030049;28;20748;-80
2022/12/22 15:06:33;;;;;;;25.83;16.20;;;6.70;1.00;;;;;;5027687;28;20240;-79
2022/12/22 15:09:10;;;;;;;23.97;15.57;;;6.60;1.00;;;;;;5028853;28;20638;-80
2022/12/22 15:11:40;;;;;;;25.87;15.83;;;6.50;99.90;;;;;;5026876;28;20192;-80
2022/12/22 15:14:10;;;;;;;22.57;14.47;;;6.40;99.90;;;;;;5026289;28;20260;-81
2022/12/22 15:16:36;;;;;;;26.30;16.53;;;6.30;99.90;;;;;;5028225;28;20241;-80
2022/12/22 15:19:04;;;;;;;31.00;17.77;;;6.20;1.00;;;;;;5033242;28;20191;-79
2022/12/22 15:21:29;;;;;;;29.47;18.03;;;6.20;1.00;;;;;;5036191;28;20179;-80
2022/12/22 15:23:55;;;;;;;31.17;20.90;;;6.00;1.00;;;;;;5036659;28;20210;-79
2022/12/22 15:26:20;;;;;;;41.97;29.27;;;6.00;1.00;;;;;;5037071;28;20221;-78
2022/12/22 15:28:46;;;;;;;96.23;65.07;;;5.90;1.00;;;;;;5031325;28;20578;-81
2022/12/22 15:31:16;;;;;;;45.17;32.87;;;5.80;1.00;;;;;;5032356;28;20195;-79
2022/12/22 15:33:43;;;;;;;35.30;26.20;;;5.70;1.00;;;;;;5027834;28;20260;-79
2022/12/22 15:36:11;;;;;;;30.63;18.90;;;5.60;15.70;;;;;;5030337;28;20205;-80
2022/12/22 15:38:38;;;;;;;32.83;19.43;;;5.40;36.10;;;;;;5030159;28;20191;-80
2022/12/22 15:41:04;;;;;;;28.70;18.53;;;5.30;88.60;;;;;;5032066;28;20182;-80
2022/12/22 15:43:29;;;;;;;26.93;18.90;;;5.20;99.90;;;;;;5030613;28;20207;-81
2022/12/22 15:45:55;;;;;;;35.90;23.20;;;5.10;99.90;;;;;;5031457;28;21100;-80
2022/12/22 15:48:25;;;;;;;38.90;25.70;;;5.10;99.90;;;;;;5032056;28;20214;-80
2022/12/22 15:50:52;;;;;;;39.00;27.27;;;5.00;99.90;;;;;;5032031;28;20202;-80
2022/12/22 15:53:19;;;;;;;32.10;21.13;;;4.90;1.00;;;;;;5031045;28;20892;-80
2022/12/22 15:55:47;;;;;;;27.20;18.27;;;5.00;1.00;;;;;;5029668;28;20183;-80
2022/12/22 15:58:17;;;;;;;23.17;14.63;;;4.90;1.00;;;;;;5030296;28;20182;-78
2022/12/22 16:00:42;;;;;;;22.10;13.60;;;4.90;1.00;;;;;;5028362;28;20192;-80
2022/12/22 16:03:09;;;;;;;21.77;14.03;;;5.00;1.00;;;;;;5029664;28;20681;-80
2022/12/22 16:05:35;;;;;;;19.83;12.43;;;5.10;1.00;;;;;;5028772;28;20253;-79
2022/12/22 16:08:02;;;;;;;20.37;13.13;;;5.40;99.90;;;;;;5030709;28;20187;-80
2022/12/22 16:10:32;;;;;;;21.90;12.50;;;5.10;99.90;;;;;;5028780;28;20211;-79
2022/12/22 16:13:01;;;;;;;21.60;13.10;;;5.10;99.90;;;;;;5025691;28;20229;-80
2022/12/22 16:15:32;;;;;;;22.43;13.30;;;5.00;99.90;;;;;;5027496;28;20175;-80
2022/12/22 16:17:59;;;;;;;19.73;11.83;;;5.00;99.90;;;;;;5026063;28;20920;-78
2022/12/22 16:20:27;;;;;;;18.80;11.97;;;5.00;99.90;;;;;;5027338;28;20179;-79
2022/12/22 16:22:53;;;;;;;20.43;12.77;;;5.00;99.90;;;;;;5023940;28;20712;-80
2022/12/22 16:25:23;;;;;;;22.60;16.10;;;4.80;99.90;;;;;;5024848;28;20444;-80
2022/12/22 16:27:49;;;;;;;19.70;12.63;;;4.80;99.90;;;;;;5028234;28;20229;-80
2022/12/22 16:30:27;;;;;;;20.57;12.07;;;4.80;99.90;;;;;;5029180;28;20249;-80
2022/12/22 16:32:53;;;;;;;19.30;12.57;;;4.80;99.90;;;;;;5029008;28;20221;-81
2022/12/22 16:35:23;;;;;;;23.13;11.93;;;4.80;99.90;;;;;;5028917;28;20183;-80
2022/12/22 16:37:48;;;;;;;18.47;11.93;;;4.80;99.90;;;;;;5029605;28;20208;-79
2022/12/22 16:40:17;;;;;;;20.03;12.70;;;4.80;99.90;;;;;;5029623;28;20310;-79
2022/12/22 16:43:00;;;;;;;18.53;12.03;;;4.80;99.90;;;;;;5029360;28;20183;-80
2022/12/22 16:45:28;;;;;;;20.07;12.83;;;4.70;99.90;;;;;;5028938;28;21306;-77
2022/12/22 16:47:58;;;;;;;23.47;14.73;;;4.70;99.90;;;;;;5027088;28;20191;-80